Time,TemperatureF,DewpointF,PressureIn,WindDirection,WindDirectionDegrees,WindSpeedMPH,WindSpeedGustMPH,Humidity,HourlyPrecipIn,Conditions,Clouds,dailyrainin,SoftwareType,DateUTC
2013-06-27 00:02:00,69.8,63.8,29.79,WSW,247,0.0,0.0,81,0.00,,,0.00,WUHU21636XXSP,2013-06-27 05:02:00,
2013-06-27 00:07:00,69.6,63.6,29.79,WSW,247,0.0,0.0,81,0.00,,,0.00,WUHU21636XXSP,2013-06-27 05:07:00,
2013-06-27 00:12:00,69.6,63.6,29.79,WSW,247,0.0,0.0,81,0.00,,,0.00,WUHU21636XXSP,2013-06-27 05:12:00,
2013-06-27 00:17:00,69.6,63.9,29.79,WSW,247,0.0,0.0,82,0.00,,,0.00,WUHU21636XXSP,2013-06-27 05:17:00,
2013-06-27 00:22:00,69.6,63.9,29.79,WSW,247,0.0,0.0,82,0.00,,,0.00,WUHU21636XXSP,2013-06-27 05:22:00,
2013-06-27 00:27:00,69.3,63.6,29.79,WSW,247,0.0,0.0,82,0.00,,,0.00,WUHU21636XXSP,2013-06-27 05:27:00,
2013-06-27 00:32:00,69.3,63.6,29.80,WSW,247,0.0,0.0,82,0.00,,,0.00,WUHU21636XXSP,2013-06-27 05:32:00,
2013-06-27 00:37:00,69.1,63.4,29.80,WSW,247,0.0,0.0,82,0.00,,,0.00,WUHU21636XXSP,2013-06-27 05:37:00,
2013-06-27 00:42:00,68.9,63.2,29.80,WSW,247,0.0,0.0,82,0.00,,,0.00,WUHU21636XXSP,2013-06-27 05:42:00,
2013-06-27 00:47:00,68.9,63.2,29.79,WSW,247,0.0,0.0,82,0.00,,,0.00,WUHU21636XXSP,2013-06-27 05:47:00,
2013-06-27 00:52:00,68.9,63.2,29.80,WSW,247,0.0,0.0,82,0.00,,,0.00,WUHU21636XXSP,2013-06-27 05:52:00,
2013-06-27 00:57:00,68.7,63.0,29.79,WSW,247,0.0,0.0,82,0.00,,,0.00,WUHU21636XXSP,2013-06-27 05:57:00,
2013-06-27 01:02:00,68.7,63.0,29.79,WSW,247,0.0,0.0,82,0.00,,,0.00,WUHU21636XXSP,2013-06-27 06:02:00,
2013-06-27 01:07:00,68.7,63.0,29.79,WSW,247,0.0,0.0,82,0.00,,,0.00,WUHU21636XXSP,2013-06-27 06:07:00,
2013-06-27 01:12:00,68.7,63.0,29.80,WSW,247,0.0,0.0,82,0.00,,,0.00,WUHU21636XXSP,2013-06-27 06:12:00,
2013-06-27 01:17:00,68.6,62.9,29.80,WSW,247,0.0,0.0,82,0.00,,,0.00,WUHU21636XXSP,2013-06-27 06:17:00,
2013-06-27 01:22:00,68.6,62.9,29.80,WSW,247,0.0,0.0,82,0.00,,,0.00,WUHU21636XXSP,2013-06-27 06:22:00,
2013-06-27 01:27:00,68.4,62.7,29.80,WSW,247,0.0,0.0,82,0.00,,,0.00,WUHU21636XXSP,2013-06-27 06:27:00,
2013-06-27 01:32:00,68.4,63.0,29.80,WSW,247,0.0,0.0,83,0.00,,,0.00,WUHU21636XXSP,2013-06-27 06:32:00,
2013-06-27 01:37:00,68.4,63.0,29.80,WSW,247,0.0,0.0,83,0.00,,,0.00,WUHU21636XXSP,2013-06-27 06:37:00,
2013-06-27 01:42:00,68.1,62.8,29.79,WSW,247,0.0,0.0,83,0.00,,,0.00,WUHU21636XXSP,2013-06-27 06:42:00,
2013-06-27 01:47:00,68.1,62.8,29.79,WSW,247,0.0,0.0,83,0.00,,,0.00,WUHU21636XXSP,2013-06-27 06:47:00,
2013-06-27 01:52:00,67.9,62.6,29.79,WSW,247,0.0,0.0,83,0.00,,,0.00,WUHU21636XXSP,2013-06-27 06:52:00,
2013-06-27 01:57:00,67.9,62.6,29.79,WSW,247,0.0,0.0,83,0.00,,,0.00,WUHU21636XXSP,2013-06-27 06:57:00,
2013-06-27 02:02:00,67.9,62.6,29.79,WSW,247,0.0,0.0,83,0.00,,,0.00,WUHU21636XXSP,2013-06-27 07:02:00,
2013-06-27 02:07:00,67.9,62.6,29.79,WSW,247,0.0,0.0,83,0.00,,,0.00,WUHU21636XXSP,2013-06-27 07:07:00,
2013-06-27 02:12:00,67.9,62.6,29.79,WSW,247,0.0,0.0,83,0.00,,,0.00,WUHU21636XXSP,2013-06-27 07:12:00,
2013-06-27 02:17:00,67.7,62.4,29.78,WSW,247,0.0,0.0,83,0.00,,,0.00,WUHU21636XXSP,2013-06-27 07:17:00,
2013-06-27 02:22:00,67.7,62.4,29.78,WSW,247,0.0,0.0,83,0.00,,,0.00,WUHU21636XXSP,2013-06-27 07:22:00,
2013-06-27 02:27:00,67.7,62.4,29.78,WSW,247,0.0,0.0,83,0.00,,,0.00,WUHU21636XXSP,2013-06-27 07:27:00,
2013-06-27 02:32:00,67.7,62.4,29.78,WSW,247,0.0,0.0,83,0.00,,,0.00,WUHU21636XXSP,2013-06-27 07:32:00,
2013-06-27 02:37:00,67.7,62.4,29.78,WSW,247,0.0,0.0,83,0.00,,,0.00,WUHU21636XXSP,2013-06-27 07:37:00,
2013-06-27 02:42:00,67.7,62.4,29.79,WSW,247,0.0,0.0,83,0.00,,,0.00,WUHU21636XXSP,2013-06-27 07:42:00,
2013-06-27 02:47:00,67.7,62.4,29.79,WSW,247,0.0,0.0,83,0.00,,,0.00,WUHU21636XXSP,2013-06-27 07:47:00,
2013-06-27 02:52:00,67.6,62.3,29.79,WSW,247,0.0,0.0,83,0.00,,,0.00,WUHU21636XXSP,2013-06-27 07:52:00,
2013-06-27 02:57:00,67.6,62.6,29.79,WSW,247,0.0,0.0,84,0.00,,,0.00,WUHU21636XXSP,2013-06-27 07:57:00,
2013-06-27 03:02:00,67.4,62.4,29.79,WSW,247,0.0,0.0,84,0.00,,,0.00,WUHU21636XXSP,2013-06-27 08:02:00,
2013-06-27 03:07:00,67.4,62.4,29.79,WSW,247,0.0,0.0,84,0.00,,,0.00,WUHU21636XXSP,2013-06-27 08:07:00,
2013-06-27 03:12:00,67.4,62.4,29.79,WSW,247,0.0,0.0,84,0.00,,,0.00,WUHU21636XXSP,2013-06-27 08:12:00,
2013-06-27 03:17:00,67.4,62.4,29.79,WSW,247,0.0,0.0,84,0.00,,,0.00,WUHU21636XXSP,2013-06-27 08:17:00,
2013-06-27 03:22:00,67.2,61.9,29.79,WSW,247,0.0,0.0,83,0.00,,,0.00,WUHU21636XXSP,2013-06-27 08:22:00,
2013-06-27 03:27:00,67.2,61.9,29.80,WSW,247,0.0,0.0,83,0.00,,,0.00,WUHU21636XXSP,2013-06-27 08:27:00,
2013-06-27 03:32:00,67.2,61.9,29.79,WSW,247,0.0,0.0,83,0.00,,,0.00,WUHU21636XXSP,2013-06-27 08:32:00,
2013-06-27 03:37:00,67.2,61.9,29.79,WSW,247,0.0,0.0,83,0.00,,,0.00,WUHU21636XXSP,2013-06-27 08:37:00,
2013-06-27 03:42:00,67.0,61.7,29.79,WSW,247,0.0,0.0,83,0.00,,,0.00,WUHU21636XXSP,2013-06-27 08:42:00,
2013-06-27 03:47:00,67.0,61.7,29.79,WSW,247,0.0,0.0,83,0.00,,,0.00,WUHU21636XXSP,2013-06-27 08:47:00,
2013-06-27 03:52:00,67.0,61.7,29.80,WSW,247,0.0,0.0,83,0.00,,,0.00,WUHU21636XXSP,2013-06-27 08:52:00,
2013-06-27 03:57:00,67.0,61.7,29.81,WSW,247,0.0,0.0,83,0.00,,,0.00,WUHU21636XXSP,2013-06-27 08:57:00,
2013-06-27 04:02:00,67.0,61.7,29.81,WSW,247,0.0,0.0,83,0.00,,,0.00,WUHU21636XXSP,2013-06-27 09:02:00,
2013-06-27 04:07:00,67.0,61.7,29.80,WSW,247,0.0,0.0,83,0.00,,,0.00,WUHU21636XXSP,2013-06-27 09:07:00,
2013-06-27 04:12:00,66.8,61.8,29.81,WSW,247,0.0,0.0,84,0.00,,,0.00,WUHU21636XXSP,2013-06-27 09:12:00,
2013-06-27 04:17:00,66.8,61.8,29.81,WSW,247,0.0,0.0,84,0.00,,,0.00,WUHU21636XXSP,2013-06-27 09:17:00,
2013-06-27 04:22:00,66.8,61.8,29.81,WSW,247,0.0,0.0,84,0.00,,,0.00,WUHU21636XXSP,2013-06-27 09:22:00,
2013-06-27 04:27:00,66.7,61.7,29.81,WSW,247,0.0,0.0,84,0.00,,,0.00,WUHU21636XXSP,2013-06-27 09:27:00,
2013-06-27 04:32:00,66.7,61.7,29.81,WSW,247,0.0,0.0,84,0.00,,,0.00,WUHU21636XXSP,2013-06-27 09:32:00,
2013-06-27 04:37:00,66.5,61.5,29.81,WSW,247,0.0,0.0,84,0.00,,,0.00,WUHU21636XXSP,2013-06-27 09:37:00,
2013-06-27 04:42:00,66.5,61.5,29.81,WSW,247,0.0,0.0,84,0.00,,,0.00,WUHU21636XXSP,2013-06-27 09:42:00,
2013-06-27 04:47:00,66.5,61.5,29.81,WSW,247,0.0,0.0,84,0.00,,,0.00,WUHU21636XXSP,2013-06-27 09:47:00,
2013-06-27 04:52:00,66.5,61.5,29.81,WSW,247,0.0,0.0,84,0.00,,,0.00,WUHU21636XXSP,2013-06-27 09:52:00,
2013-06-27 04:57:00,66.5,61.5,29.81,WSW,247,0.0,0.0,84,0.00,,,0.00,WUHU21636XXSP,2013-06-27 09:57:00,
2013-06-27 05:02:00,66.3,61.3,29.81,WSW,247,0.0,0.0,84,0.00,,,0.00,WUHU21636XXSP,2013-06-27 10:02:00,
2013-06-27 05:07:00,66.0,61.1,29.81,WSW,247,0.0,0.0,84,0.00,,,0.00,WUHU21636XXSP,2013-06-27 10:07:00,
2013-06-27 05:12:00,66.0,61.1,29.81,WSW,247,0.0,0.0,84,0.00,,,0.00,WUHU21636XXSP,2013-06-27 10:12:00,
2013-06-27 05:17:00,66.0,61.1,29.81,WSW,247,0.0,0.0,84,0.00,,,0.00,WUHU21636XXSP,2013-06-27 10:17:00,
2013-06-27 05:22:00,66.0,61.1,29.81,WSW,247,0.0,0.0,84,0.00,,,0.00,WUHU21636XXSP,2013-06-27 10:22:00,
2013-06-27 05:27:00,66.0,61.1,29.81,WSW,247,0.0,0.0,84,0.00,,,0.00,WUHU21636XXSP,2013-06-27 10:27:00,
2013-06-27 05:32:00,65.8,60.9,29.81,WSW,247,0.0,0.0,84,0.00,,,0.00,WUHU21636XXSP,2013-06-27 10:32:00,
2013-06-27 05:37:00,65.8,60.9,29.81,WSW,247,0.0,0.0,84,0.00,,,0.00,WUHU21636XXSP,2013-06-27 10:37:00,
2013-06-27 05:42:00,65.8,60.9,29.81,WSW,247,0.0,0.0,84,0.00,,,0.00,WUHU21636XXSP,2013-06-27 10:42:00,
2013-06-27 05:47:00,65.8,60.9,29.81,WSW,247,0.0,0.0,84,0.00,,,0.00,WUHU21636XXSP,2013-06-27 10:47:00,
2013-06-27 05:52:00,65.8,60.9,29.81,WSW,247,0.0,0.0,84,0.00,,,0.00,WUHU21636XXSP,2013-06-27 10:52:00,
2013-06-27 05:57:00,65.5,60.6,29.81,WSW,247,0.0,0.0,84,0.00,,,0.00,WUHU21636XXSP,2013-06-27 10:57:00,
2013-06-27 06:02:00,65.5,60.6,29.81,WSW,247,0.0,0.0,84,0.00,,,0.00,WUHU21636XXSP,2013-06-27 11:02:00,
2013-06-27 06:07:00,65.5,60.6,29.81,WSW,247,0.0,0.0,84,0.00,,,0.00,WUHU21636XXSP,2013-06-27 11:07:00,
2013-06-27 06:12:00,65.5,60.6,29.81,WSW,247,0.0,0.0,84,0.00,,,0.00,WUHU21636XXSP,2013-06-27 11:12:00,
2013-06-27 06:17:00,65.5,60.6,29.81,WSW,247,0.0,0.0,84,0.00,,,0.00,WUHU21636XXSP,2013-06-27 11:17:00,
2013-06-27 06:22:00,65.5,60.6,29.81,WSW,247,0.0,0.0,84,0.00,,,0.00,WUHU21636XXSP,2013-06-27 11:22:00,
2013-06-27 06:27:00,65.5,60.6,29.80,WSW,247,0.0,0.0,84,0.00,,,0.00,WUHU21636XXSP,2013-06-27 11:27:00,
2013-06-27 06:32:00,65.5,60.6,29.81,WSW,247,0.0,0.0,84,0.00,,,0.00,WUHU21636XXSP,2013-06-27 11:32:00,
2013-06-27 06:37:00,65.5,60.6,29.81,WSW,247,0.0,0.0,84,0.00,,,0.00,WUHU21636XXSP,2013-06-27 11:37:00,
2013-06-27 06:42:00,65.5,60.6,29.81,WSW,247,0.0,0.0,84,0.00,,,0.00,WUHU21636XXSP,2013-06-27 11:42:00,
2013-06-27 06:47:00,65.5,60.6,29.81,WSW,247,0.0,0.0,84,0.00,,,0.00,WUHU21636XXSP,2013-06-27 11:47:00,
2013-06-27 06:52:00,65.5,60.6,29.81,WSW,247,0.0,0.0,84,0.00,,,0.00,WUHU21636XXSP,2013-06-27 11:52:00,
2013-06-27 06:57:00,65.5,60.6,29.81,WSW,247,0.0,0.0,84,0.00,,,0.00,WUHU21636XXSP,2013-06-27 11:57:00,
2013-06-27 07:02:00,65.8,60.9,29.81,WSW,247,0.0,0.0,84,0.00,,,0.00,WUHU21636XXSP,2013-06-27 12:02:00,
2013-06-27 07:07:00,65.8,60.9,29.81,WSW,247,0.0,0.0,84,0.00,,,0.00,WUHU21636XXSP,2013-06-27 12:07:00,
2013-06-27 07:12:00,65.8,60.9,29.81,WSW,247,0.0,0.0,84,0.00,,,0.00,WUHU21636XXSP,2013-06-27 12:12:00,
2013-06-27 07:17:00,65.8,60.9,29.81,WSW,247,0.0,0.0,84,0.00,,,0.00,WUHU21636XXSP,2013-06-27 12:17:00,
2013-06-27 07:22:00,66.0,61.1,29.81,WSW,247,0.0,0.0,84,0.00,,,0.00,WUHU21636XXSP,2013-06-27 12:22:00,
2013-06-27 07:27:00,66.5,61.5,29.81,WSW,247,0.0,0.0,84,0.00,,,0.00,WUHU21636XXSP,2013-06-27 12:27:00,
2013-06-27 07:32:00,66.7,61.7,29.81,WSW,247,0.0,0.0,84,0.00,,,0.00,WUHU21636XXSP,2013-06-27 12:32:00,
2013-06-27 07:37:00,67.0,62.0,29.81,WSW,247,0.0,0.0,84,0.00,,,0.00,WUHU21636XXSP,2013-06-27 12:37:00,
2013-06-27 07:42:00,67.2,62.2,29.81,WSW,247,0.0,0.0,84,0.00,,,0.00,WUHU21636XXSP,2013-06-27 12:42:00,
2013-06-27 07:47:00,67.7,62.7,29.81,WSW,247,0.0,0.0,84,0.00,,,0.00,WUHU21636XXSP,2013-06-27 12:47:00,
2013-06-27 07:52:00,67.9,63.0,29.81,WSW,247,0.0,0.0,84,0.00,,,0.00,WUHU21636XXSP,2013-06-27 12:52:00,
2013-06-27 07:57:00,68.4,63.4,29.81,WSW,247,0.0,0.0,84,0.00,,,0.00,WUHU21636XXSP,2013-06-27 12:57:00,
2013-06-27 08:02:00,68.6,63.6,29.81,WSW,247,0.0,0.0,84,0.00,,,0.00,WUHU21636XXSP,2013-06-27 13:02:00,
2013-06-27 08:07:00,68.7,63.7,29.81,WSW,247,0.0,0.0,84,0.00,,,0.00,WUHU21636XXSP,2013-06-27 13:07:00,
2013-06-27 08:12:00,69.3,64.6,29.81,SW,225,0.0,0.0,85,0.00,,,0.00,WUHU21636XXSP,2013-06-27 13:12:00,
2013-06-27 08:17:00,69.3,64.6,29.82,SW,225,0.0,0.0,85,0.00,,,0.00,WUHU21636XXSP,2013-06-27 13:17:00,
2013-06-27 08:22:00,69.5,64.8,29.82,SW,225,0.0,0.0,85,0.00,,,0.00,WUHU21636XXSP,2013-06-27 13:22:00,
2013-06-27 08:27:00,69.6,64.9,29.82,SW,225,0.0,0.0,85,0.00,,,0.00,WUHU21636XXSP,2013-06-27 13:27:00,
2013-06-27 08:32:00,69.6,64.9,29.81,SW,225,0.0,0.0,85,0.00,,,0.00,WUHU21636XXSP,2013-06-27 13:32:00,
2013-06-27 08:37:00,69.8,65.1,29.82,SW,225,0.0,0.0,85,0.00,,,0.00,WUHU21636XXSP,2013-06-27 13:37:00,
2013-06-27 08:42:00,69.8,64.8,29.82,SW,225,0.0,0.0,84,0.00,,,0.00,WUHU21636XXSP,2013-06-27 13:42:00,
2013-06-27 08:47:00,70.5,65.4,29.82,SW,225,0.0,0.0,84,0.00,,,0.00,WUHU21636XXSP,2013-06-27 13:47:00,
2013-06-27 08:52:00,70.6,65.5,29.82,SW,225,0.0,0.0,84,0.00,,,0.00,WUHU21636XXSP,2013-06-27 13:52:00,
2013-06-27 08:57:00,70.6,65.5,29.82,SW,225,0.0,0.0,84,0.00,,,0.00,WUHU21636XXSP,2013-06-27 13:57:00,
2013-06-27 09:02:00,70.6,65.5,29.81,SW,225,0.0,0.0,84,0.00,,,0.00,WUHU21636XXSP,2013-06-27 14:02:00,
2013-06-27 09:07:00,70.6,65.5,29.81,SW,225,0.0,0.0,84,0.00,,,0.00,WUHU21636XXSP,2013-06-27 14:07:00,
2013-06-27 09:08:00,70.6,65.5,29.81,SW,225,0.0,0.0,84,0.00,,,0.00,WUHU21636XXSP,2013-06-27 14:08:00,
2013-06-27 09:12:00,70.6,65.5,29.81,SW,225,0.0,0.0,84,0.00,,,0.00,WUHU21636XXSP,2013-06-27 14:12:00,
2013-06-27 09:17:00,70.6,65.5,29.81,SW,225,0.0,0.0,84,0.00,,,0.00,WUHU21636XXSP,2013-06-27 14:17:00,
2013-06-27 09:39:00,74.0,67.9,29.80,West,270,0.0,0.0,81,0.00,,,0.00,WUHU21636XXSP,2013-06-27 14:39:00,
2013-06-27 09:44:00,74.3,68.2,29.80,West,270,0.0,0.0,81,0.00,,,0.00,WUHU21636XXSP,2013-06-27 14:44:00,
2013-06-27 09:49:00,74.6,68.4,29.80,West,270,0.0,0.0,81,0.00,,,0.00,WUHU21636XXSP,2013-06-27 14:49:00,
2013-06-27 09:54:00,75.3,68.8,29.80,West,270,0.0,0.0,80,0.00,,,0.00,WUHU21636XXSP,2013-06-27 14:54:00,
2013-06-27 09:59:00,75.5,69.0,29.80,West,270,0.0,0.0,80,0.00,,,0.00,WUHU21636XXSP,2013-06-27 14:59:00,
2013-06-27 10:04:00,75.9,69.0,29.80,West,270,0.0,0.0,79,0.00,,,0.00,WUHU21636XXSP,2013-06-27 15:04:00,
2013-06-27 10:09:00,76.2,69.0,29.80,WNW,292,0.0,0.0,78,0.00,,,0.00,WUHU21636XXSP,2013-06-27 15:09:00,
2013-06-27 10:14:00,76.4,69.2,29.80,West,270,0.0,0.0,78,0.00,,,0.00,WUHU21636XXSP,2013-06-27 15:14:00,
2013-06-27 10:19:00,76.7,69.0,29.79,West,270,0.0,0.0,77,0.00,,,0.00,WUHU21636XXSP,2013-06-27 15:19:00,
2013-06-27 10:24:00,77.2,69.2,29.79,West,270,0.0,0.0,76,0.00,,,0.00,WUHU21636XXSP,2013-06-27 15:24:00,
2013-06-27 10:29:00,77.4,69.0,29.79,NW,315,0.0,0.0,75,0.00,,,0.00,WUHU21636XXSP,2013-06-27 15:29:00,
2013-06-27 10:34:00,77.8,69.0,29.79,West,270,0.0,0.0,74,0.00,,,0.00,WUHU21636XXSP,2013-06-27 15:34:00,
2013-06-27 10:39:00,78.0,69.2,29.79,West,270,0.0,0.0,74,0.00,,,0.00,WUHU21636XXSP,2013-06-27 15:39:00,
2013-06-27 10:44:00,78.3,69.9,29.78,West,270,0.0,0.0,75,0.00,,,0.00,WUHU21636XXSP,2013-06-27 15:44:00,
2013-06-27 10:49:00,78.8,69.9,29.79,West,270,0.0,0.0,74,0.00,,,0.00,WUHU21636XXSP,2013-06-27 15:49:00,
2013-06-27 10:54:00,79.1,69.9,29.78,West,270,0.0,0.0,73,0.00,,,0.00,WUHU21636XXSP,2013-06-27 15:54:00,
2013-06-27 10:59:00,79.5,69.9,29.78,WSW,247,0.0,0.0,72,0.00,,,0.00,WUHU21636XXSP,2013-06-27 15:59:00,
2013-06-27 11:04:00,80.0,70.0,29.77,WSW,247,0.0,0.0,71,0.00,,,0.00,WUHU21636XXSP,2013-06-27 16:04:00,
2013-06-27 11:09:00,80.2,70.6,29.77,West,270,0.0,0.0,72,0.00,,,0.00,WUHU21636XXSP,2013-06-27 16:09:00,
2013-06-27 11:14:00,80.6,70.2,29.77,West,270,0.0,0.0,70,0.00,,,0.00,WUHU21636XXSP,2013-06-27 16:14:00,
2013-06-27 11:19:00,81.0,70.1,29.77,SSE,157,0.0,1.2,69,0.00,,,0.00,WUHU21636XXSP,2013-06-27 16:19:00,
2013-06-27 11:24:00,81.2,70.7,29.77,East,90,0.0,1.2,70,0.00,,,0.00,WUHU21636XXSP,2013-06-27 16:24:00,
2013-06-27 11:29:00,81.9,70.1,29.77,West,270,0.0,0.0,67,0.00,,,0.00,WUHU21636XXSP,2013-06-27 16:29:00,
2013-06-27 11:34:00,82.1,70.3,29.78,West,270,0.0,0.0,67,0.00,,,0.00,WUHU21636XXSP,2013-06-27 16:34:00,
2013-06-27 11:39:00,82.3,70.9,29.78,West,270,0.0,0.0,68,0.00,,,0.00,WUHU21636XXSP,2013-06-27 16:39:00,
2013-06-27 11:44:00,82.5,71.1,29.78,West,270,0.0,0.0,68,0.00,,,0.00,WUHU21636XXSP,2013-06-27 16:44:00,
2013-06-27 11:49:00,82.5,71.1,29.78,West,270,0.0,0.0,68,0.00,,,0.00,WUHU21636XXSP,2013-06-27 16:49:00,
2013-06-27 11:54:00,82.8,71.5,29.78,SW,225,0.0,0.0,68,0.00,,,0.00,WUHU21636XXSP,2013-06-27 16:54:00,
2013-06-27 11:59:00,83.5,72.5,29.78,SW,225,0.0,0.0,69,0.00,,,0.00,WUHU21636XXSP,2013-06-27 16:59:00,
2013-06-27 12:04:00,83.7,71.4,29.78,NNE,22,0.0,0.0,66,0.00,,,0.00,WUHU21636XXSP,2013-06-27 17:04:00,
2013-06-27 12:09:00,83.8,71.0,29.78,West,270,0.0,0.0,65,0.00,,,0.00,WUHU21636XXSP,2013-06-27 17:09:00,
2013-06-27 12:14:00,84.0,71.7,29.78,ENE,67,0.0,0.0,66,0.00,,,0.00,WUHU21636XXSP,2013-06-27 17:14:00,
2013-06-27 12:19:00,84.0,69.4,29.78,NW,315,0.0,0.0,61,0.00,,,0.00,WUHU21636XXSP,2013-06-27 17:19:00,
2013-06-27 12:24:00,84.4,70.2,29.78,ENE,67,0.0,0.0,62,0.00,,,0.00,WUHU21636XXSP,2013-06-27 17:24:00,
2013-06-27 12:29:00,84.7,70.5,29.78,NNE,22,0.0,0.0,62,0.00,,,0.00,WUHU21636XXSP,2013-06-27 17:29:00,
2013-06-27 12:34:00,84.9,70.7,29.77,South,180,0.0,1.6,62,0.00,,,0.00,WUHU21636XXSP,2013-06-27 17:34:00,
2013-06-27 12:39:00,84.9,70.7,29.78,WSW,247,0.0,1.6,62,0.00,,,0.00,WUHU21636XXSP,2013-06-27 17:39:00,
2013-06-27 12:44:00,85.6,70.9,29.78,SW,225,0.0,0.0,61,0.00,,,0.00,WUHU21636XXSP,2013-06-27 17:44:00,
2013-06-27 12:49:00,85.9,69.7,29.77,West,270,0.0,0.0,58,0.00,,,0.00,WUHU21636XXSP,2013-06-27 17:49:00,
2013-06-27 12:54:00,86.1,69.3,29.78,ESE,112,0.0,0.0,57,0.00,,,0.00,WUHU21636XXSP,2013-06-27 17:54:00,
2013-06-27 12:59:00,86.6,68.2,29.78,SW,227,4.4,6.2,54,0.00,,,0.00,WUHU21636XXSP,2013-06-27 17:59:00,
2013-06-27 13:04:00,86.8,69.0,29.78,SSE,157,9.8,9.8,55,0.00,,,0.00,WUHU21636XXSP,2013-06-27 18:04:00,
2013-06-27 13:09:00,87.0,68.6,29.78,SE,135,0.0,9.8,54,0.00,,,0.00,WUHU21636XXSP,2013-06-27 18:09:00,
2013-06-27 13:14:00,87.6,69.1,29.77,SE,135,4.8,9.8,54,0.00,,,0.00,WUHU21636XXSP,2013-06-27 18:14:00,
2013-06-27 13:19:00,87.6,66.8,29.77,ESE,112,2.6,4.8,50,0.00,,,0.00,WUHU21636XXSP,2013-06-27 18:19:00,
2013-06-27 13:24:00,87.5,68.4,29.77,East,90,0.0,4.8,53,0.00,,,0.00,WUHU21636XXSP,2013-06-27 18:24:00,
2013-06-27 13:29:00,87.3,69.4,29.78,South,180,0.0,2.6,55,0.00,,,0.00,WUHU21636XXSP,2013-06-27 18:29:00,
2013-06-27 13:34:00,87.0,68.6,29.78,SE,135,0.0,0.0,54,0.00,,,0.00,WUHU21636XXSP,2013-06-27 18:34:00,
2013-06-27 13:40:00,86.8,68.4,29.78,ENE,67,0.0,0.0,54,0.00,,,0.00,WUHU21636XXSP,2013-06-27 18:40:00,
2013-06-27 13:45:00,86.6,69.8,29.77,ESE,112,0.0,0.0,57,0.00,,,0.00,WUHU21636XXSP,2013-06-27 18:45:00,
2013-06-27 13:49:00,86.3,66.8,29.78,ESE,112,5.2,5.2,52,0.00,,,0.00,WUHU21636XXSP,2013-06-27 18:49:00,
2013-06-27 13:54:00,86.6,67.1,29.78,WSW,247,0.0,5.2,52,0.00,,,0.00,WUHU21636XXSP,2013-06-27 18:54:00,
2013-06-27 13:59:00,87.0,67.5,29.77,SSE,157,0.0,5.2,52,0.00,,,0.00,WUHU21636XXSP,2013-06-27 18:59:00,
2013-06-27 14:04:00,87.6,66.8,29.77,ENE,67,0.0,0.0,50,0.00,,,0.00,WUHU21636XXSP,2013-06-27 19:04:00,
2013-06-27 14:09:00,88.2,66.8,29.77,SSE,157,0.0,4.8,49,0.00,,,0.00,WUHU21636XXSP,2013-06-27 19:09:00,
2013-06-27 14:14:00,88.2,67.4,29.77,ESE,112,0.0,4.8,50,0.00,,,0.00,WUHU21636XXSP,2013-06-27 19:14:00,
2013-06-27 14:19:00,88.7,67.9,29.77,ESE,112,0.0,0.0,50,0.00,,,0.00,WUHU21636XXSP,2013-06-27 19:19:00,
2013-06-27 14:24:00,88.5,66.5,29.77,West,270,0.0,0.0,48,0.00,,,0.00,WUHU21636XXSP,2013-06-27 19:24:00,
2013-06-27 14:29:00,88.2,66.2,29.77,ENE,67,0.0,0.0,48,0.00,,,0.00,WUHU21636XXSP,2013-06-27 19:29:00,
2013-06-27 14:34:00,87.8,66.4,29.77,NE,45,0.0,0.0,49,0.00,,,0.00,WUHU21636XXSP,2013-06-27 19:34:00,
2013-06-27 14:39:00,87.8,67.0,29.77,ENE,67,0.0,0.0,50,0.00,,,0.00,WUHU21636XXSP,2013-06-27 19:39:00,
2013-06-27 14:44:00,88.2,69.1,29.77,NE,45,2.6,2.6,53,0.00,,,0.00,WUHU21636XXSP,2013-06-27 19:44:00,
2013-06-27 14:49:00,88.5,68.8,29.77,ENE,67,0.0,2.6,52,0.00,,,0.00,WUHU21636XXSP,2013-06-27 19:49:00,
2013-06-27 14:54:00,88.7,67.9,29.77,ESE,103,6.2,13.4,50,0.00,,,0.00,WUHU21636XXSP,2013-06-27 19:54:00,
2013-06-27 14:59:00,88.7,66.6,29.77,NE,45,0.0,13.4,48,0.00,,,0.00,WUHU21636XXSP,2013-06-27 19:59:00,
2013-06-27 15:04:00,88.5,65.2,29.77,NE,45,0.8,4.4,46,0.00,,,0.00,WUHU21636XXSP,2013-06-27 20:04:00,
2013-06-27 15:09:00,88.2,67.4,29.77,ESE,112,0.4,4.0,50,0.00,,,0.00,WUHU21636XXSP,2013-06-27 20:09:00,
2013-06-27 15:14:00,88.5,66.5,29.76,SE,135,7.6,7.6,48,0.00,,,0.00,WUHU21636XXSP,2013-06-27 20:14:00,
2013-06-27 15:19:00,88.5,66.5,29.76,SSW,202,0.0,7.6,48,0.00,,,0.00,WUHU21636XXSP,2013-06-27 20:19:00,
2013-06-27 15:24:00,88.7,66.0,29.77,East,90,8.4,8.4,47,0.00,,,0.00,WUHU21636XXSP,2013-06-27 20:24:00,
2013-06-27 15:29:00,88.9,65.6,29.76,SSW,202,3.4,8.4,46,0.00,,,0.00,WUHU21636XXSP,2013-06-27 20:29:00,
2013-06-27 15:35:00,89.1,65.8,29.77,SSE,157,0.0,3.4,46,0.00,,,0.00,WUHU21636XXSP,2013-06-27 20:35:00,
2013-06-27 15:40:00,88.7,63.4,29.77,South,180,0.0,3.4,43,0.00,,,0.00,WUHU21636XXSP,2013-06-27 20:40:00,
2013-06-27 15:45:00,89.1,65.8,29.76,ESE,112,0.0,3.4,46,0.00,,,0.00,WUHU21636XXSP,2013-06-27 20:45:00,
2013-06-27 15:50:00,89.1,65.1,29.76,East,90,0.0,3.4,45,0.00,,,0.00,WUHU21636XXSP,2013-06-27 20:50:00,
2013-06-27 15:55:00,89.5,65.4,29.76,East,90,0.0,0.0,45,0.00,,,0.00,WUHU21636XXSP,2013-06-27 20:55:00,
2013-06-27 16:00:00,89.5,66.7,29.76,SE,135,0.0,0.0,47,0.00,,,0.00,WUHU21636XXSP,2013-06-27 21:00:00,
2013-06-27 16:05:00,88.2,65.5,29.76,SSE,157,0.0,5.2,47,0.00,,,0.00,WUHU21636XXSP,2013-06-27 21:05:00,
2013-06-27 16:10:00,88.2,64.9,29.76,SSE,157,0.0,5.2,46,0.00,,,0.00,WUHU21636XXSP,2013-06-27 21:10:00,
2013-06-27 16:16:00,88.5,65.8,29.76,ENE,67,8.8,8.8,47,0.00,,,0.00,WUHU21636XXSP,2013-06-27 21:16:00,
2013-06-27 16:21:00,88.7,66.6,29.76,East,90,0.0,8.8,48,0.00,,,0.00,WUHU21636XXSP,2013-06-27 21:21:00,
2013-06-27 16:26:00,88.7,65.4,29.76,ESE,112,0.0,0.0,46,0.00,,,0.00,WUHU21636XXSP,2013-06-27 21:26:00,
2013-06-27 16:31:00,88.7,65.4,29.76,ESE,112,0.0,0.0,46,0.00,,,0.00,WUHU21636XXSP,2013-06-27 21:31:00,
2013-06-27 16:36:00,88.5,63.9,29.75,WSW,247,2.2,2.2,44,0.00,,,0.00,WUHU21636XXSP,2013-06-27 21:36:00,
2013-06-27 16:41:00,88.7,63.4,29.75,NE,45,2.6,2.6,43,0.00,,,0.00,WUHU21636XXSP,2013-06-27 21:41:00,
2013-06-27 16:46:00,88.7,63.4,29.75,West,270,0.0,2.6,43,0.00,,,0.00,WUHU21636XXSP,2013-06-27 21:46:00,
2013-06-27 16:52:00,88.7,63.4,29.75,ENE,67,0.4,0.4,43,0.00,,,0.00,WUHU21636XXSP,2013-06-27 21:52:00,
2013-06-27 16:57:00,88.7,64.7,29.75,ESE,112,9.2,9.2,45,0.00,,,0.00,WUHU21636XXSP,2013-06-27 21:57:00,
2013-06-27 17:02:00,88.9,65.6,29.75,SSE,157,2.6,9.2,46,0.00,,,0.00,WUHU21636XXSP,2013-06-27 22:02:00,
2013-06-27 17:07:00,88.4,63.8,29.75,ENE,67,0.0,2.6,44,0.00,,,0.00,WUHU21636XXSP,2013-06-27 22:07:00,
2013-06-27 17:12:00,88.2,62.9,29.75,East,90,0.0,0.0,43,0.00,,,0.00,WUHU21636XXSP,2013-06-27 22:12:00,
2013-06-27 17:17:00,88.0,64.7,29.75,SSE,157,5.8,5.8,46,0.00,,,0.00,WUHU21636XXSP,2013-06-27 22:17:00,
2013-06-27 17:23:00,87.6,62.3,29.75,West,270,0.0,5.8,43,0.00,,,0.00,WUHU21636XXSP,2013-06-27 22:23:00,
2013-06-27 17:28:00,87.6,62.3,29.75,East,90,4.8,4.8,43,0.00,,,0.00,WUHU21636XXSP,2013-06-27 22:28:00,
2013-06-27 17:33:00,87.3,63.4,29.75,SE,135,0.0,4.8,45,0.00,,,0.00,WUHU21636XXSP,2013-06-27 22:33:00,
2013-06-27 17:38:00,86.8,63.0,29.75,WSW,247,0.0,4.8,45,0.00,,,0.00,WUHU21636XXSP,2013-06-27 22:38:00,
2013-06-27 17:43:00,86.8,63.6,29.75,ENE,67,0.0,1.6,46,0.00,,,0.00,WUHU21636XXSP,2013-06-27 22:43:00,
2013-06-27 17:48:00,86.6,62.2,29.74,NNE,22,0.0,10.2,44,0.00,,,0.00,WUHU21636XXSP,2013-06-27 22:48:00,
2013-06-27 17:53:00,86.6,62.8,29.74,SE,135,1.6,10.2,45,0.00,,,0.00,WUHU21636XXSP,2013-06-27 22:53:00,
2013-06-27 17:59:00,86.5,62.1,29.75,ESE,112,0.0,1.6,44,0.00,,,0.00,WUHU21636XXSP,2013-06-27 22:59:00,
2013-06-27 18:04:00,86.3,62.5,29.74,North,0,0.0,0.0,45,0.00,,,0.00,WUHU21636XXSP,2013-06-27 23:04:00,
2013-06-27 18:09:00,86.1,63.0,29.75,NW,315,0.0,0.0,46,0.00,,,0.00,WUHU21636XXSP,2013-06-27 23:09:00,
2013-06-27 18:14:00,85.6,62.5,29.75,SSW,202,0.0,0.0,46,0.00,,,0.00,WUHU21636XXSP,2013-06-27 23:14:00,
2013-06-27 18:19:00,85.4,62.3,29.75,NE,45,0.0,0.0,46,0.00,,,0.00,WUHU21636XXSP,2013-06-27 23:19:00,
2013-06-27 18:25:00,85.2,62.7,29.75,NW,315,0.0,0.0,47,0.00,,,0.00,WUHU21636XXSP,2013-06-27 23:25:00,
2013-06-27 18:30:00,84.9,61.9,29.75,ESE,112,0.0,0.0,46,0.00,,,0.00,WUHU21636XXSP,2013-06-27 23:30:00,
2013-06-27 18:35:00,84.6,62.9,29.75,SE,135,0.0,0.0,48,0.00,,,0.00,WUHU21636XXSP,2013-06-27 23:35:00,
2013-06-27 18:40:00,84.7,63.0,29.75,SE,135,0.0,0.0,48,0.00,,,0.00,WUHU21636XXSP,2013-06-27 23:40:00,
2013-06-27 18:45:00,84.0,62.3,29.75,East,90,2.6,2.6,48,0.00,,,0.00,WUHU21636XXSP,2013-06-27 23:45:00,
2013-06-27 18:51:00,83.8,60.9,29.75,NNE,22,0.0,2.6,46,0.00,,,0.00,WUHU21636XXSP,2013-06-27 23:51:00,
2013-06-27 18:56:00,83.5,61.8,29.76,ESE,112,0.0,0.0,48,0.00,,,0.00,WUHU21636XXSP,2013-06-27 23:56:00,
2013-06-27 19:01:00,83.5,61.2,29.75,ENE,67,0.0,0.0,47,0.00,,,0.00,WUHU21636XXSP,2013-06-28 00:01:00,
2013-06-27 19:06:00,82.8,60.6,29.76,SSE,157,3.4,3.4,47,0.00,,,0.00,WUHU21636XXSP,2013-06-28 00:06:00,
2013-06-27 19:11:00,82.8,62.4,29.76,South,180,0.0,3.4,50,0.00,,,0.00,WUHU21636XXSP,2013-06-28 00:11:00,
2013-06-27 19:16:00,82.5,60.3,29.76,ESE,112,0.0,0.0,47,0.00,,,0.00,WUHU21636XXSP,2013-06-28 00:16:00,
2013-06-27 19:21:00,82.1,61.8,29.75,ESE,112,0.0,0.0,50,0.00,,,0.00,WUHU21636XXSP,2013-06-28 00:21:00,
2013-06-27 19:27:00,81.9,61.0,29.76,ESE,112,0.0,0.0,49,0.00,,,0.00,WUHU21636XXSP,2013-06-28 00:27:00,
2013-06-27 19:33:00,81.6,62.4,29.76,NE,45,0.0,0.0,52,0.00,,,0.00,WUHU21636XXSP,2013-06-28 00:33:00,
2013-06-27 19:38:00,81.2,63.1,29.76,NNE,22,0.0,0.0,54,0.00,,,0.00,WUHU21636XXSP,2013-06-28 00:38:00,
2013-06-27 19:43:00,80.8,61.7,29.76,NNE,22,0.0,0.0,52,0.00,,,0.00,WUHU21636XXSP,2013-06-28 00:43:00,
2013-06-27 19:48:00,80.6,61.5,29.76,NNE,22,0.0,0.0,52,0.00,,,0.00,WUHU21636XXSP,2013-06-28 00:48:00,
2013-06-27 19:53:00,80.2,61.7,29.76,NNE,22,0.0,0.0,53,0.00,,,0.00,WUHU21636XXSP,2013-06-28 00:53:00,
2013-06-27 19:58:00,79.9,61.9,29.76,NNE,22,0.0,0.0,54,0.00,,,0.00,WUHU21636XXSP,2013-06-28 00:58:00,
2013-06-27 20:03:00,79.7,61.8,29.75,NNE,22,0.0,0.0,54,0.00,,,0.00,WUHU21636XXSP,2013-06-28 01:03:00,
2013-06-27 20:08:00,79.3,61.9,29.76,NNE,22,0.0,0.0,55,0.00,,,0.00,WUHU21636XXSP,2013-06-28 01:08:00,
2013-06-27 20:13:00,79.1,62.2,29.76,NNE,22,0.0,0.0,56,0.00,,,0.00,WUHU21636XXSP,2013-06-28 01:13:00,
2013-06-27 20:18:00,78.5,62.7,29.76,NNE,22,0.0,0.0,58,0.00,,,0.00,WUHU21636XXSP,2013-06-28 01:18:00,
2013-06-27 20:23:00,78.0,61.7,29.75,NNE,22,0.0,0.0,57,0.00,,,0.00,WUHU21636XXSP,2013-06-28 01:23:00,
2013-06-27 20:28:00,77.6,61.9,29.75,NNE,22,0.0,0.0,58,0.00,,,0.00,WUHU21636XXSP,2013-06-28 01:28:00,
2013-06-27 20:33:00,77.2,61.9,29.75,NNE,22,0.0,0.0,59,0.00,,,0.00,WUHU21636XXSP,2013-06-28 01:33:00,
2013-06-27 20:39:00,76.9,62.1,29.75,NNE,22,0.0,0.0,60,0.00,,,0.00,WUHU21636XXSP,2013-06-28 01:39:00,
2013-06-27 20:44:00,76.2,61.5,29.76,NNE,22,0.0,0.0,60,0.00,,,0.00,WUHU21636XXSP,2013-06-28 01:44:00,
2013-06-27 20:49:00,75.9,61.2,29.76,NNE,22,0.0,0.0,60,0.00,,,0.00,WUHU21636XXSP,2013-06-28 01:49:00,
2013-06-27 20:54:00,75.3,61.1,29.76,NNE,22,0.0,0.0,61,0.00,,,0.00,WUHU21636XXSP,2013-06-28 01:54:00,
2013-06-27 20:59:00,75.0,60.8,29.76,NNE,22,0.0,0.0,61,0.00,,,0.00,WUHU21636XXSP,2013-06-28 01:59:00,
2013-06-27 21:04:00,74.6,60.9,29.76,NNE,22,0.0,0.0,62,0.00,,,0.00,WUHU21636XXSP,2013-06-28 02:04:00,
2013-06-27 21:09:00,74.3,60.7,29.76,NNE,22,0.0,0.0,62,0.00,,,0.00,WUHU21636XXSP,2013-06-28 02:09:00,
2013-06-27 21:15:00,74.0,60.8,29.76,NNE,22,0.0,0.0,63,0.00,,,0.00,WUHU21636XXSP,2013-06-28 02:15:00,
2013-06-27 21:20:00,73.4,60.2,29.76,NNE,22,0.0,0.0,63,0.00,,,0.00,WUHU21636XXSP,2013-06-28 02:20:00,
2013-06-27 21:25:00,73.3,60.6,29.76,NNE,22,0.0,0.0,64,0.00,,,0.00,WUHU21636XXSP,2013-06-28 02:25:00,
2013-06-27 21:30:00,72.7,60.0,29.76,NNE,22,0.0,0.0,64,0.00,,,0.00,WUHU21636XXSP,2013-06-28 02:30:00,
2013-06-27 21:35:00,72.4,60.2,29.76,NNE,22,0.0,0.0,65,0.00,,,0.00,WUHU21636XXSP,2013-06-28 02:35:00,
2013-06-27 21:41:00,72.3,60.1,29.76,NNE,22,0.0,0.0,65,0.00,,,0.00,WUHU21636XXSP,2013-06-28 02:41:00,
2013-06-27 21:46:00,71.7,59.9,29.77,NNE,22,0.0,0.0,66,0.00,,,0.00,WUHU21636XXSP,2013-06-28 02:46:00,
2013-06-27 21:51:00,71.5,59.7,29.77,NNE,22,0.0,0.0,66,0.00,,,0.00,WUHU21636XXSP,2013-06-28 02:51:00,
2013-06-27 21:56:00,71.5,59.7,29.77,NNE,22,0.0,0.0,66,0.00,,,0.00,WUHU21636XXSP,2013-06-28 02:56:00,
2013-06-27 22:01:00,71.0,59.7,29.77,NNE,22,0.0,0.0,67,0.00,,,0.00,WUHU21636XXSP,2013-06-28 03:01:00,
2013-06-27 22:06:00,70.8,59.9,29.77,NNE,22,0.0,0.0,68,0.00,,,0.00,WUHU21636XXSP,2013-06-28 03:06:00,
2013-06-27 22:11:00,70.6,59.7,29.77,NNE,22,0.0,0.0,68,0.00,,,0.00,WUHU21636XXSP,2013-06-28 03:11:00,
2013-06-27 22:16:00,70.2,59.8,29.77,NNE,22,0.0,0.0,69,0.00,,,0.00,WUHU21636XXSP,2013-06-28 03:16:00,
2013-06-27 22:21:00,69.8,59.4,29.77,NNE,22,0.0,0.0,69,0.00,,,0.00,WUHU21636XXSP,2013-06-28 03:21:00,
2013-06-27 22:26:00,69.6,59.2,29.77,NNE,22,0.0,0.0,69,0.00,,,0.00,WUHU21636XXSP,2013-06-28 03:26:00,
2013-06-27 22:31:00,69.6,59.2,29.77,NNE,22,0.0,0.0,69,0.00,,,0.00,WUHU21636XXSP,2013-06-28 03:31:00,
2013-06-27 22:36:00,69.3,59.3,29.77,NNE,22,0.0,0.0,70,0.00,,,0.00,WUHU21636XXSP,2013-06-28 03:36:00,
2013-06-27 22:42:00,69.1,59.5,29.77,NNE,22,0.0,0.0,71,0.00,,,0.00,WUHU21636XXSP,2013-06-28 03:42:00,
2013-06-27 22:47:00,68.9,59.3,29.77,NNE,22,0.0,0.0,71,0.00,,,0.00,WUHU21636XXSP,2013-06-28 03:47:00,
2013-06-27 22:53:00,68.6,59.3,29.77,NNE,22,0.0,0.0,72,0.00,,,0.00,WUHU21636XXSP,2013-06-28 03:53:00,
2013-06-27 22:58:00,68.4,59.1,29.77,NNE,22,0.0,0.0,72,0.00,,,0.00,WUHU21636XXSP,2013-06-28 03:58:00,
2013-06-27 23:01:00,68.1,58.9,29.77,NNE,22,0.0,0.0,72,0.00,,,0.00,WUHU21636XXSP,2013-06-28 04:01:00,
2013-06-27 23:06:00,67.9,58.7,29.77,NNE,22,0.0,0.0,72,0.00,,,0.00,WUHU21636XXSP,2013-06-28 04:06:00,
2013-06-27 23:11:00,67.7,58.9,29.77,NNE,22,0.0,0.0,73,0.00,,,0.00,WUHU21636XXSP,2013-06-28 04:11:00,
2013-06-27 23:16:00,67.4,58.6,29.77,NNE,22,0.0,0.0,73,0.00,,,0.00,WUHU21636XXSP,2013-06-28 04:16:00,
2013-06-27 23:21:00,67.4,59.0,29.77,NNE,22,0.0,0.0,74,0.00,,,0.00,WUHU21636XXSP,2013-06-28 04:21:00,
2013-06-27 23:26:00,67.0,58.6,29.78,NNE,22,0.0,0.0,74,0.00,,,0.00,WUHU21636XXSP,2013-06-28 04:26:00,
2013-06-27 23:31:00,67.0,58.6,29.78,NNE,22,0.0,0.0,74,0.00,,,0.00,WUHU21636XXSP,2013-06-28 04:31:00,
2013-06-27 23:36:00,66.8,58.4,29.77,NNE,22,0.0,0.0,74,0.00,,,0.00,WUHU21636XXSP,2013-06-28 04:36:00,
2013-06-27 23:41:00,66.7,58.3,29.78,NNE,22,0.0,0.0,74,0.00,,,0.00,WUHU21636XXSP,2013-06-28 04:41:00,
2013-06-27 23:46:00,66.5,58.4,29.78,NNE,22,0.0,0.0,75,0.00,,,0.00,WUHU21636XXSP,2013-06-28 04:46:00,
2013-06-27 23:51:00,66.5,58.4,29.77,NNE,22,0.0,0.0,75,0.00,,,0.00,WUHU21636XXSP,2013-06-28 04:51:00,
2013-06-27 23:56:00,66.3,58.6,29.77,NNE,22,0.0,0.0,76,0.00,,,0.00,WUHU21636XXSP,2013-06-28 04:56:00,